createdAt,value
2018-12-24T00:00:45.246Z,0.33
2018-12-24T00:03:16.300Z,0.40
2018-12-24T00:05:47.261Z,0.40
2018-12-24T00:08:18.246Z,0.30
2018-12-24T00:10:49.296Z,0.30
2018-12-24T00:13:20.357Z,0.40
2018-12-24T00:15:51.422Z,0.60
2018-12-24T00:18:22.667Z,0.70
2018-12-24T00:20:53.786Z,0.50
2018-12-24T00:23:24.885Z,0.67
2018-12-24T00:25:56.020Z,0.30
2018-12-24T00:28:27.123Z,0.30
2018-12-24T00:30:58.153Z,2.00
2018-12-24T00:33:29.168Z,0.40
2018-12-24T00:36:00.437Z,0.50
2018-12-24T00:38:31.595Z,0.30
2018-12-24T00:41:02.871Z,0.30
2018-12-24T00:43:34.076Z,0.87
2018-12-24T00:46:05.111Z,0.40
2018-12-24T00:48:36.305Z,0.40
2018-12-24T00:51:07.446Z,0.40
2018-12-24T00:53:38.546Z,0.30
2018-12-24T00:56:09.725Z,0.30
2018-12-24T00:58:41.041Z,1.10
2018-12-24T01:01:12.235Z,0.30
2018-12-24T01:03:43.509Z,0.30
2018-12-24T01:06:14.710Z,0.40
2018-12-24T01:08:45.960Z,0.30
2018-12-24T01:11:17.263Z,0.30
2018-12-24T01:13:48.396Z,0.80
2018-12-24T01:18:21.453Z,0.40
2018-12-24T01:20:52.581Z,0.30
2018-12-24T01:23:23.193Z,0.40
2018-12-24T01:25:53.945Z,0.50
2018-12-24T01:28:24.693Z,0.73
2018-12-24T01:30:55.345Z,0.30
2018-12-24T01:33:25.975Z,1.17
2018-12-24T01:35:56.721Z,0.40
2018-12-24T01:38:27.438Z,0.30
2018-12-24T01:40:58.177Z,0.30
2018-12-24T01:43:28.793Z,0.30
2018-12-24T01:46:00.326Z,0.30
2018-12-24T01:48:31.194Z,0.30
2018-12-24T01:51:02.017Z,0.30
2018-12-24T01:53:32.708Z,0.30
2018-12-24T01:56:03.502Z,0.37
2018-12-24T01:58:34.326Z,1.00
2018-12-24T02:01:05.195Z,0.50
2018-12-24T02:03:36.021Z,0.40
2018-12-24T02:06:06.780Z,0.20
2018-12-24T02:08:37.634Z,0.80
2018-12-24T02:11:08.461Z,1.13
2018-12-24T02:13:39.266Z,2.30
2018-12-24T02:16:10.009Z,2.20
2018-12-24T02:18:40.550Z,6.10
2018-12-24T02:21:11.258Z,0.73
2018-12-24T02:23:41.876Z,2.00
2018-12-24T02:26:12.587Z,0.83
2018-12-24T02:28:43.296Z,1.37
2018-12-24T02:31:14.004Z,1.00
2018-12-24T02:33:44.597Z,0.57
2018-12-24T02:36:15.245Z,4.07
2018-12-24T02:38:45.814Z,0.60
2018-12-24T02:41:16.912Z,0.60
2018-12-24T02:43:47.711Z,0.60
2018-12-24T02:46:18.389Z,1.80
2018-12-24T02:48:49.075Z,3.80
2018-12-24T02:51:19.805Z,1.00
2018-12-24T02:53:50.505Z,1.17
2018-12-24T02:56:21.164Z,1.90
2018-12-24T02:58:51.873Z,0.87
2018-12-24T03:01:22.671Z,0.40
2018-12-24T03:03:53.349Z,0.47
2018-12-24T03:06:23.988Z,0.40
2018-12-24T03:08:54.586Z,2.77
2018-12-24T03:11:25.211Z,1.83
2018-12-24T03:13:55.819Z,0.40
2018-12-24T03:16:26.438Z,1.70
2018-12-24T03:18:57.047Z,1.40
2018-12-24T03:21:27.755Z,1.07
2018-12-24T03:23:58.364Z,0.43
2018-12-24T03:26:28.989Z,0.87
2018-12-24T03:28:59.605Z,0.30
2018-12-24T03:31:30.242Z,0.50
2018-12-24T03:34:00.841Z,0.53
2018-12-24T03:36:31.499Z,0.57
2018-12-24T03:39:02.102Z,0.70
2018-12-24T03:41:34.193Z,2.07
2018-12-24T03:44:04.721Z,3.10
2018-12-24T03:46:35.393Z,0.87
2018-12-24T03:49:06.073Z,0.40
2018-12-24T03:51:36.745Z,1.13
2018-12-24T03:54:07.440Z,1.00
2018-12-24T03:56:37.986Z,0.87
2018-12-24T03:59:08.609Z,0.50
2018-12-24T04:01:39.221Z,0.70
2018-12-24T04:04:09.852Z,0.50
2018-12-24T04:06:40.718Z,0.37
2018-12-24T04:09:11.269Z,0.40
2018-12-24T04:11:41.891Z,0.80
2018-12-24T04:14:12.590Z,0.87
2018-12-24T04:16:43.191Z,0.40
2018-12-24T04:19:13.893Z,0.40
2018-12-24T04:21:45.499Z,1.33
2018-12-24T04:24:16.232Z,3.67
2018-12-24T04:26:46.913Z,0.67
2018-12-24T04:29:17.569Z,2.33
2018-12-24T04:31:48.255Z,0.43
2018-12-24T04:34:18.884Z,0.40
2018-12-24T04:36:49.435Z,0.57
2018-12-24T04:39:20.394Z,0.50
2018-12-24T04:41:51.136Z,0.40
2018-12-24T04:44:21.790Z,1.40
2018-12-24T04:46:52.398Z,0.93
2018-12-24T04:49:23.019Z,0.53
2018-12-24T04:51:53.628Z,0.60
2018-12-24T04:54:24.313Z,0.70
2018-12-24T04:56:54.854Z,0.80
2018-12-24T04:59:25.497Z,0.67
2018-12-24T05:01:56.105Z,0.80
2018-12-24T05:04:26.736Z,1.83
2018-12-24T05:06:57.377Z,0.90
2018-12-24T05:09:28.000Z,0.83
2018-12-24T05:11:58.522Z,1.00
2018-12-24T05:14:29.150Z,0.90
2018-12-24T05:16:59.832Z,0.87
2018-12-24T05:19:30.444Z,1.00
2018-12-24T05:22:00.967Z,1.17
2018-12-24T05:24:31.593Z,4.33
2018-12-24T05:27:02.194Z,1.13
2018-12-24T05:29:32.893Z,1.10
2018-12-24T05:32:03.574Z,3.80
2018-12-24T05:34:34.124Z,0.80
2018-12-24T05:37:04.668Z,0.80
2018-12-24T05:39:35.361Z,0.70
2018-12-24T05:42:05.963Z,0.90
2018-12-24T05:44:36.512Z,0.90
2018-12-24T05:47:07.117Z,1.47
2018-12-24T05:49:38.804Z,0.80
2018-12-24T05:52:09.334Z,1.23
2018-12-24T05:54:39.885Z,0.83
2018-12-24T05:57:10.556Z,0.90
2018-12-24T05:59:41.190Z,0.87
2018-12-24T06:02:11.877Z,0.90
2018-12-24T06:04:42.441Z,0.90
2018-12-24T06:07:13.037Z,0.90
2018-12-24T06:09:43.734Z,1.20
2018-12-24T06:12:14.357Z,0.80
2018-12-24T06:14:45.060Z,0.80
2018-12-24T06:17:15.575Z,0.80
2018-12-24T06:19:46.129Z,0.70
2018-12-24T06:22:16.749Z,0.97
2018-12-24T06:24:47.312Z,0.63
2018-12-24T06:27:17.920Z,1.23
2018-12-24T06:29:48.499Z,0.70
2018-12-24T06:32:19.168Z,0.70
2018-12-24T06:34:49.730Z,0.80
2018-12-24T06:37:20.293Z,0.60
2018-12-24T06:39:50.937Z,0.83
2018-12-24T06:42:21.462Z,0.90
2018-12-24T06:44:52.093Z,0.87
2018-12-24T06:47:22.760Z,0.90
2018-12-24T06:49:53.349Z,0.80
2018-12-24T06:52:23.944Z,0.90
2018-12-24T06:54:54.525Z,0.80
2018-12-24T06:57:25.154Z,0.97
2018-12-24T06:59:56.834Z,1.10
2018-12-24T07:02:27.438Z,1.43
2018-12-24T07:04:58.149Z,1.30
2018-12-24T07:07:28.754Z,1.23
2018-12-24T07:09:59.332Z,1.10
2018-12-24T07:12:31.118Z,1.10
2018-12-24T07:15:01.783Z,1.30
2018-12-24T07:17:33.453Z,0.90
2018-12-24T07:20:04.142Z,1.23
2018-12-24T07:22:34.782Z,1.50
2018-12-24T07:25:05.401Z,1.10
2018-12-24T07:27:35.943Z,1.70
2018-12-24T07:30:06.645Z,1.50
2018-12-24T07:32:37.337Z,1.10
2018-12-24T07:35:07.977Z,1.50
2018-12-24T07:37:38.715Z,2.07
2018-12-24T07:40:09.425Z,3.47
2018-12-24T07:42:40.065Z,4.70
2018-12-24T07:45:10.745Z,2.13
2018-12-24T07:47:41.290Z,3.60
2018-12-24T07:50:11.972Z,1.90
2018-12-24T07:52:42.590Z,2.00
2018-12-24T07:55:13.127Z,3.47
2018-12-24T07:57:43.746Z,3.60
2018-12-24T08:00:14.340Z,8.80
2018-12-24T08:02:44.893Z,2.60
2018-12-24T08:05:15.417Z,4.23
2018-12-24T08:07:46.048Z,6.30
2018-12-24T08:10:16.582Z,4.50
2018-12-24T08:12:47.245Z,3.90
2018-12-24T08:15:17.872Z,2.93
2018-12-24T08:17:48.416Z,2.87
2018-12-24T08:20:19.016Z,3.67
2018-12-24T08:22:49.629Z,2.70
2018-12-24T08:25:20.193Z,2.27
2018-12-24T08:27:59.453Z,4.23
2018-12-24T08:30:30.041Z,3.23
2018-12-24T08:33:02.878Z,2.70
2018-12-24T08:35:33.537Z,3.10
2018-12-24T08:38:04.097Z,2.43
2018-12-24T08:40:34.632Z,3.53
2018-12-24T08:43:05.269Z,4.03
2018-12-24T08:45:35.961Z,4.37
2018-12-24T08:48:06.517Z,3.40
2018-12-24T08:50:37.144Z,1.77
2018-12-24T08:53:07.857Z,2.73
2018-12-24T08:55:42.596Z,2.10
2018-12-24T08:58:13.229Z,6.10
2018-12-24T09:00:43.834Z,4.10
2018-12-24T09:03:14.469Z,3.27
2018-12-24T09:05:45.194Z,3.30
2018-12-24T09:08:16.064Z,4.00
2018-12-24T09:10:46.593Z,2.50
2018-12-24T09:13:17.197Z,2.73
2018-12-24T09:15:47.717Z,2.37
2018-12-24T09:18:18.348Z,2.73
2018-12-24T09:20:52.767Z,2.80
2018-12-24T09:23:21.230Z,2.80
2018-12-24T09:25:51.833Z,2.93
2018-12-24T09:28:22.537Z,2.70
2018-12-24T09:30:53.526Z,3.03
2018-12-24T09:33:24.136Z,3.13
2018-12-24T09:35:54.697Z,4.13
2018-12-24T09:38:25.316Z,2.50
2018-12-24T09:40:55.845Z,2.37
2018-12-24T09:43:26.471Z,6.40
2018-12-24T09:45:57.074Z,3.00
2018-12-24T09:48:27.684Z,2.80
2018-12-24T09:50:58.380Z,2.60
2018-12-24T09:53:28.917Z,3.20
2018-12-24T09:55:59.574Z,2.87
2018-12-24T09:58:30.173Z,5.67
2018-12-24T10:01:00.865Z,3.60
2018-12-24T10:03:36.017Z,3.40
2018-12-24T10:06:16.361Z,3.40
2018-12-24T10:08:46.968Z,5.20
2018-12-24T10:11:17.597Z,3.63
2018-12-24T10:13:48.333Z,3.50
2018-12-24T10:16:20.529Z,4.63
2018-12-24T10:18:51.130Z,4.00
2018-12-24T10:21:21.803Z,4.17
2018-12-24T10:23:52.342Z,5.07
2018-12-24T10:26:23.375Z,5.10
2018-12-24T10:28:53.981Z,4.47
2018-12-24T10:31:24.614Z,4.80
2018-12-24T10:33:55.233Z,4.07
2018-12-24T10:36:26.493Z,6.13
2018-12-24T10:38:57.117Z,5.60
2018-12-24T10:41:29.675Z,3.43
2018-12-24T10:44:00.512Z,4.57
2018-12-24T10:46:31.222Z,7.40
2018-12-24T10:49:01.913Z,2.93
2018-12-24T10:51:32.479Z,2.60
2018-12-24T10:54:03.209Z,2.33
2018-12-24T10:56:33.929Z,3.80
2018-12-24T10:59:04.614Z,5.80
2018-12-24T11:01:35.243Z,2.40
2018-12-24T11:04:05.950Z,3.07
2018-12-24T11:06:36.588Z,2.23
2018-12-24T11:09:07.803Z,1.90
2018-12-24T11:11:42.238Z,3.23
2018-12-24T11:14:12.989Z,1.73
2018-12-24T11:16:43.652Z,2.63
2018-12-24T11:19:15.681Z,1.60
2018-12-24T11:21:46.519Z,1.20
2018-12-24T11:24:18.189Z,1.27
2018-12-24T11:26:49.755Z,1.27
2018-12-24T11:29:21.280Z,2.50
2018-12-24T11:31:52.428Z,2.10
2018-12-24T11:34:23.390Z,1.60
2018-12-24T11:36:54.225Z,1.87
2018-12-24T11:39:25.026Z,2.40
2018-12-24T11:41:55.952Z,2.20
2018-12-24T11:44:26.787Z,1.80
2018-12-24T11:46:57.697Z,2.30
2018-12-24T11:49:28.709Z,2.33
2018-12-24T11:51:59.443Z,1.80
2018-12-24T11:54:30.125Z,2.67
2018-12-24T11:57:00.781Z,3.17
2018-12-24T11:59:31.445Z,3.47
2018-12-24T12:02:09.760Z,3.40
2018-12-24T12:04:34.306Z,5.40
2018-12-24T12:07:05.504Z,4.27
2018-12-24T12:09:36.827Z,6.30
2018-12-24T12:12:07.833Z,6.83
2018-12-24T12:14:38.708Z,5.43
2018-12-24T12:17:09.458Z,5.60
2018-12-24T12:19:40.090Z,6.53
2018-12-24T12:22:10.736Z,6.97
2018-12-24T12:24:41.268Z,6.50
2018-12-24T12:27:12.141Z,7.23
2018-12-24T12:29:42.813Z,4.87
2018-12-24T12:32:13.601Z,6.87
2018-12-24T12:34:44.277Z,5.60
2018-12-24T12:37:14.929Z,5.53
2018-12-24T12:39:45.541Z,6.67
2018-12-24T12:42:17.681Z,5.63
2018-12-24T12:44:48.437Z,4.80
2018-12-24T12:47:19.065Z,6.20
2018-12-24T12:49:49.705Z,5.47
2018-12-24T12:52:20.402Z,5.40
2018-12-24T12:54:51.110Z,4.83
2018-12-24T12:57:21.775Z,3.87
2018-12-24T12:59:52.295Z,4.80
2018-12-24T13:02:23.004Z,4.93
2018-12-24T13:04:53.040Z,5.23
2018-12-24T13:07:23.416Z,4.00
2018-12-24T13:09:53.949Z,5.37
2018-12-24T13:12:24.584Z,5.70
2018-12-24T13:14:55.292Z,3.80
2018-12-24T13:17:25.869Z,3.47
2018-12-24T13:19:56.479Z,3.37
2018-12-24T13:22:27.082Z,3.93
2018-12-24T13:24:57.762Z,3.30
2018-12-24T13:27:28.404Z,2.63
2018-12-24T13:29:59.045Z,2.67
2018-12-24T13:32:29.706Z,3.07
2018-12-24T13:35:00.342Z,6.50
2018-12-24T13:37:31.101Z,4.23
2018-12-24T13:40:01.678Z,2.97
2018-12-24T13:42:32.431Z,2.33
2018-12-24T13:45:03.897Z,1.20
2018-12-24T13:47:34.625Z,1.50
2018-12-24T13:50:05.430Z,1.10
2018-12-24T13:52:38.819Z,1.27
2018-12-24T13:55:10.402Z,1.47
2018-12-24T13:57:41.977Z,1.50
2018-12-24T14:00:12.686Z,1.80
2018-12-24T14:02:43.343Z,1.40
2018-12-24T14:05:14.004Z,2.07
2018-12-24T14:07:44.621Z,3.30
2018-12-24T14:10:15.365Z,3.40
2018-12-24T14:12:45.994Z,2.43
2018-12-24T14:15:16.771Z,2.20
2018-12-24T14:17:47.461Z,1.40
2018-12-24T14:20:18.104Z,2.17
2018-12-24T14:22:48.729Z,2.20
2018-12-24T14:25:19.294Z,1.60
2018-12-24T14:27:49.917Z,3.13
2018-12-24T14:30:20.529Z,1.53
2018-12-24T14:32:51.150Z,2.30
2018-12-24T14:35:21.791Z,2.70
2018-12-24T14:37:52.316Z,3.20
2018-12-24T14:40:23.832Z,3.13
2018-12-24T14:42:54.432Z,3.20
2018-12-24T14:45:26.063Z,3.20
2018-12-24T14:47:56.729Z,3.13
2018-12-24T14:50:27.533Z,3.20
2018-12-24T14:52:58.085Z,2.33
2018-12-24T14:55:28.787Z,2.60
2018-12-24T14:57:59.386Z,3.33
2018-12-24T15:00:30.004Z,3.10
2018-12-24T15:03:00.621Z,4.00
2018-12-24T15:05:31.176Z,4.20
2018-12-24T15:08:01.917Z,3.37
2018-12-24T15:10:34.525Z,3.37
2018-12-24T15:13:08.449Z,2.23
2018-12-24T15:15:39.184Z,3.87
2018-12-24T15:18:09.800Z,3.03
2018-12-24T15:20:40.460Z,9.40
2018-12-24T15:23:11.076Z,7.70
2018-12-24T15:25:41.684Z,4.50
2018-12-24T15:28:12.277Z,3.87
2018-12-24T15:30:42.965Z,5.50
2018-12-24T15:33:13.587Z,3.70
2018-12-24T15:35:44.153Z,3.70
2018-12-24T15:38:14.774Z,6.37
2018-12-24T15:40:45.456Z,7.37
2018-12-24T15:43:16.148Z,6.70
2018-12-24T15:45:46.774Z,5.70
2018-12-24T15:48:17.386Z,5.77
2018-12-24T15:50:47.934Z,4.90
2018-12-24T15:53:18.457Z,4.90
2018-12-24T15:55:49.009Z,6.20
2018-12-24T15:58:19.539Z,7.77
2018-12-24T16:00:50.179Z,9.13
2018-12-24T16:03:21.745Z,13.40
2018-12-24T16:05:52.307Z,5.53
2018-12-24T16:08:22.897Z,6.47
2018-12-24T16:10:53.445Z,6.17
2018-12-24T16:13:24.482Z,5.10
2018-12-24T16:15:55.194Z,6.50
2018-12-24T16:18:25.790Z,4.33
2018-12-24T16:20:56.332Z,5.87
2018-12-24T16:23:28.445Z,6.60
2018-12-24T16:25:59.005Z,4.07
2018-12-24T16:31:34.796Z,5.07
2018-12-24T16:34:06.396Z,6.73
2018-12-24T16:36:37.478Z,4.80
2018-12-24T16:39:13.197Z,5.17
2018-12-24T16:41:44.341Z,5.27
2018-12-24T16:44:16.758Z,8.40
2018-12-24T16:46:47.682Z,7.83
2018-12-24T16:49:18.441Z,11.47
2018-12-24T16:51:49.338Z,9.43
2018-12-24T16:54:21.616Z,16.40
2018-12-24T16:57:06.855Z,50.47
2018-12-24T16:59:42.732Z,35.33
2018-12-24T17:02:17.818Z,25.80
2018-12-24T17:04:48.529Z,19.17
2018-12-24T17:07:19.310Z,12.00
2018-12-24T17:09:50.044Z,6.87
2018-12-24T17:12:22.240Z,11.27
2018-12-24T17:14:53.107Z,14.90
2018-12-24T17:17:23.857Z,10.50
2018-12-24T17:19:54.557Z,10.73
2018-12-24T17:22:27.470Z,12.90
2018-12-24T17:24:59.784Z,15.73
2018-12-24T17:27:30.352Z,10.97
2018-12-24T17:30:00.945Z,12.20
2018-12-24T17:32:31.592Z,11.57
2018-12-24T17:35:02.257Z,14.10
2018-12-24T17:37:32.966Z,15.30
2018-12-24T17:40:03.761Z,11.13
2018-12-24T17:42:34.409Z,14.60
2018-12-24T17:45:05.250Z,12.60
2018-12-24T17:47:35.965Z,13.27
2018-12-24T17:50:07.262Z,13.03
2018-12-24T17:52:37.911Z,13.17
2018-12-24T17:55:08.626Z,17.20
2018-12-24T17:57:39.340Z,19.20
2018-12-24T18:00:09.965Z,15.60
2018-12-24T18:02:40.614Z,15.20
2018-12-24T18:05:11.318Z,15.87
2018-12-24T18:07:41.979Z,18.53
2018-12-24T18:10:12.680Z,12.43
2018-12-24T18:12:43.393Z,14.80
2018-12-24T18:15:14.102Z,15.53
2018-12-24T18:17:44.824Z,14.00
2018-12-24T18:20:15.521Z,15.80
2018-12-24T18:22:46.178Z,17.97
2018-12-24T18:25:16.882Z,16.33
2018-12-24T18:27:47.628Z,15.50
2018-12-24T18:30:18.337Z,14.10
2018-12-24T18:32:48.973Z,10.80
2018-12-24T18:35:19.706Z,11.30
2018-12-24T18:37:50.715Z,12.80
2018-12-24T18:40:21.371Z,12.63
2018-12-24T18:42:52.103Z,14.20
2018-12-24T18:45:22.813Z,13.40
2018-12-24T18:47:53.481Z,17.10
2018-12-24T18:50:23.532Z,16.17
2018-12-24T18:52:53.922Z,15.57
2018-12-24T18:55:24.569Z,12.97
2018-12-24T18:57:55.199Z,14.90
2018-12-24T19:00:25.926Z,13.73
2018-12-24T19:02:56.614Z,13.73
2018-12-24T19:05:27.335Z,12.83
2018-12-24T19:07:57.961Z,15.20
2018-12-24T19:10:28.711Z,11.80
2018-12-24T19:12:59.437Z,14.33
2018-12-24T19:15:30.075Z,13.63
2018-12-24T19:18:00.793Z,11.73
2018-12-24T19:20:31.518Z,12.07
2018-12-24T19:23:02.248Z,14.80
2018-12-24T19:25:32.987Z,16.07
2018-12-24T19:28:03.690Z,17.73
2018-12-24T19:30:34.500Z,15.27
2018-12-24T19:33:05.205Z,15.17
2018-12-24T19:35:36.323Z,15.43
2018-12-24T19:38:07.157Z,14.30
2018-12-24T19:40:40.491Z,13.57
2018-12-24T19:43:10.698Z,20.37
2018-12-24T19:45:40.837Z,24.53
2018-12-24T19:48:11.088Z,17.67
2018-12-24T19:50:42.915Z,16.50
2018-12-24T19:53:13.190Z,19.87
2018-12-24T19:55:43.874Z,15.17
2018-12-24T19:58:14.276Z,16.20
2018-12-24T20:00:45.713Z,20.37
2018-12-24T20:03:16.349Z,19.30
2018-12-24T20:05:47.005Z,18.57
2018-12-24T20:08:17.645Z,16.13
2018-12-24T20:10:48.322Z,16.83
2018-12-24T20:13:19.018Z,19.47
2018-12-24T20:15:49.746Z,17.30
2018-12-24T20:18:20.373Z,15.60
2018-12-24T20:20:51.092Z,23.87
2018-12-24T20:23:21.717Z,18.63
2018-12-24T20:25:53.337Z,17.57
2018-12-24T20:28:24.289Z,18.37
2018-12-24T20:30:54.941Z,20.37
2018-12-24T20:33:25.485Z,20.27
2018-12-24T20:35:56.155Z,18.57
2018-12-24T20:38:26.849Z,18.17
2018-12-24T20:40:57.507Z,18.53
2018-12-24T20:43:28.270Z,21.00
2018-12-24T20:45:58.986Z,20.23
2018-12-24T20:48:29.677Z,34.43
2018-12-24T20:51:01.025Z,40.50
2018-12-24T20:53:32.408Z,39.50
2018-12-24T20:56:03.161Z,34.03
2018-12-24T20:58:34.492Z,26.53
2018-12-24T21:01:05.622Z,19.37
2018-12-24T21:03:36.246Z,18.77
2018-12-24T21:06:07.061Z,18.30
2018-12-24T21:08:40.874Z,18.87
2018-12-24T21:11:11.520Z,23.63
2018-12-24T21:13:42.179Z,17.60
2018-12-24T21:16:12.817Z,19.00
2018-12-24T21:18:43.438Z,17.27
2018-12-24T21:21:14.106Z,20.87
2018-12-24T21:23:44.803Z,15.70
2018-12-24T21:26:15.533Z,16.23
2018-12-24T21:28:45.582Z,14.80
2018-12-24T21:31:17.372Z,15.23
2018-12-24T21:33:48.090Z,13.70
2018-12-24T21:36:18.861Z,15.33
2018-12-24T21:38:50.133Z,15.93
2018-12-24T21:41:20.909Z,15.53
2018-12-24T21:43:51.536Z,13.20
2018-12-24T21:46:22.254Z,12.87
2018-12-24T21:48:52.865Z,16.03
2018-12-24T21:51:23.466Z,14.30
2018-12-24T21:53:54.148Z,14.93
2018-12-24T21:56:25.031Z,14.90
2018-12-24T21:58:55.737Z,14.83
2018-12-24T22:01:26.463Z,12.43
2018-12-24T22:03:57.146Z,16.17
2018-12-24T22:06:27.894Z,16.50
2018-12-24T22:08:58.665Z,18.17
2018-12-24T22:11:29.142Z,18.50
2018-12-24T22:13:59.747Z,16.50
2018-12-24T22:16:30.469Z,17.60
2018-12-24T22:19:00.613Z,13.50
2018-12-24T22:21:31.165Z,15.17
2018-12-24T22:24:01.966Z,17.83
2018-12-24T22:26:32.719Z,17.40
2018-12-24T22:29:03.434Z,14.77
2018-12-24T22:31:34.135Z,20.60
2018-12-24T22:34:05.017Z,18.00
2018-12-24T22:36:35.845Z,14.07
2018-12-24T22:39:08.043Z,17.20
2018-12-24T22:41:38.777Z,17.03
2018-12-24T22:44:10.343Z,15.20
2018-12-24T22:46:41.254Z,14.10
2018-12-24T22:49:12.034Z,12.23
2018-12-24T22:51:42.938Z,13.57
2018-12-24T22:54:16.022Z,13.43
2018-12-24T22:56:46.717Z,15.73
2018-12-24T22:59:17.452Z,13.87
2018-12-24T23:01:48.220Z,13.47
2018-12-24T23:04:19.075Z,13.20
2018-12-24T23:06:49.809Z,12.73
2018-12-24T23:09:20.502Z,13.40
2018-12-24T23:11:51.449Z,13.53
2018-12-24T23:14:22.093Z,14.43
2018-12-24T23:16:52.864Z,15.40
2018-12-24T23:19:23.699Z,14.37
2018-12-24T23:21:56.579Z,14.30
2018-12-24T23:24:27.012Z,15.53
2018-12-24T23:26:58.106Z,14.97
2018-12-24T23:29:28.917Z,12.10
2018-12-24T23:31:59.637Z,13.53
2018-12-24T23:34:30.693Z,15.13
2018-12-24T23:37:01.494Z,16.07
2018-12-24T23:39:32.326Z,17.50
2018-12-24T23:42:03.244Z,15.93
2018-12-24T23:44:34.071Z,19.57
2018-12-24T23:47:05.781Z,19.40
2018-12-24T23:49:36.650Z,15.80
2018-12-24T23:52:07.364Z,16.50
2018-12-24T23:54:38.255Z,19.23
2018-12-24T23:57:09.490Z,21.13
